sensor_id;sensor_type;location;lat;lon;timestamp;pressure;altitude;pressure_sealevel;temperature
50206;BMP280;36098;48.390;10.856;2022-08-25T00:01:18;96243.06;;;26.85
50206;BMP280;36098;48.390;10.856;2022-08-25T00:03:44;96241.00;;;26.82
50206;BMP280;36098;48.390;10.856;2022-08-25T00:06:11;96235.63;;;26.87
50206;BMP280;36098;48.390;10.856;2022-08-25T00:08:37;96235.63;;;26.87
50206;BMP280;36098;48.390;10.856;2022-08-25T00:11:09;96235.56;;;26.92
50206;BMP280;36098;48.390;10.856;2022-08-25T00:13:37;96234.53;;;26.88
50206;BMP280;36098;48.390;10.856;2022-08-25T00:16:02;96238.06;;;26.83
50206;BMP280;36098;48.390;10.856;2022-08-25T00:18:28;96231.97;;;26.83
50206;BMP280;36098;48.390;10.856;2022-08-25T00:20:53;96235.19;;;26.80
50206;BMP280;36098;48.390;10.856;2022-08-25T00:23:19;96242.06;;;26.81
50206;BMP280;36098;48.390;10.856;2022-08-25T00:25:44;96230.50;;;26.77
50206;BMP280;36098;48.390;10.856;2022-08-25T00:28:10;96235.47;;;26.78
50206;BMP280;36098;48.390;10.856;2022-08-25T00:30:35;96241.00;;;26.82
50206;BMP280;36098;48.390;10.856;2022-08-25T00:33:01;96233.91;;;26.77
50206;BMP280;36098;48.390;10.856;2022-08-25T00:35:27;96229.91;;;26.80
50206;BMP280;36098;48.390;10.856;2022-08-25T00:37:52;96232.78;;;26.83
50206;BMP280;36098;48.390;10.856;2022-08-25T00:40:18;96231.13;;;26.87
50206;BMP280;36098;48.390;10.856;2022-08-25T00:42:44;96229.81;;;26.85
50206;BMP280;36098;48.390;10.856;2022-08-25T00:45:09;96224.09;;;26.78
50206;BMP280;36098;48.390;10.856;2022-08-25T00:47:35;96226.66;;;26.83
50206;BMP280;36098;48.390;10.856;2022-08-25T00:50:03;96224.81;;;26.83
50206;BMP280;36098;48.390;10.856;2022-08-25T00:52:50;96230.69;;;26.80
50206;BMP280;36098;48.390;10.856;2022-08-25T00:55:22;96223.53;;;26.81
50206;BMP280;36098;48.390;10.856;2022-08-25T00:57:53;96221.38;;;26.83
50206;BMP280;36098;48.390;10.856;2022-08-25T01:00:32;96222.44;;;26.82
50206;BMP280;36098;48.390;10.856;2022-08-25T01:02:58;96224.50;;;26.85
50206;BMP280;36098;48.390;10.856;2022-08-25T01:05:25;96220.59;;;26.82
50206;BMP280;36098;48.390;10.856;2022-08-25T01:07:52;96219.31;;;26.80
50206;BMP280;36098;48.390;10.856;2022-08-25T01:10:20;96222.94;;;26.84
50206;BMP280;36098;48.390;10.856;2022-08-25T01:12:46;96212.94;;;26.81
50206;BMP280;36098;48.390;10.856;2022-08-25T01:15:13;96217.06;;;26.87
50206;BMP280;36098;48.390;10.856;2022-08-25T01:17:50;96212.66;;;26.82
50206;BMP280;36098;48.390;10.856;2022-08-25T01:20:18;96213.72;;;26.81
50206;BMP280;36098;48.390;10.856;2022-08-25T01:22:44;96212.34;;;26.84
50206;BMP280;36098;48.390;10.856;2022-08-25T01:28:07;96206.66;;;26.77
50206;BMP280;36098;48.390;10.856;2022-08-25T01:30:33;96206.84;;;26.80
50206;BMP280;36098;48.390;10.856;2022-08-25T01:33:02;96213.72;;;26.81
50206;BMP280;36098;48.390;10.856;2022-08-25T01:35:27;96207.63;;;26.81
50206;BMP280;36098;48.390;10.856;2022-08-25T01:37:53;96208.22;;;26.78
50206;BMP280;36098;48.390;10.856;2022-08-25T01:40:18;96199.78;;;26.76
50206;BMP280;36098;48.390;10.856;2022-08-25T01:45:32;96197.41;;;26.74
50206;BMP280;36098;48.390;10.856;2022-08-25T01:47:58;96191.34;;;26.74
50206;BMP280;36098;48.390;10.856;2022-08-25T01:50:23;96190.94;;;26.80
50206;BMP280;36098;48.390;10.856;2022-08-25T01:53:12;96189.66;;;26.78
50206;BMP280;36098;48.390;10.856;2022-08-25T01:55:41;96186.22;;;26.77
50206;BMP280;36098;48.390;10.856;2022-08-25T01:58:24;96195.47;;;26.80
50206;BMP280;36098;48.390;10.856;2022-08-25T02:00:52;96194.66;;;26.79
50206;BMP280;36098;48.390;10.856;2022-08-25T02:03:22;96186.53;;;26.76
50206;BMP280;36098;48.390;10.856;2022-08-25T02:05:48;96184.16;;;26.74
50206;BMP280;36098;48.390;10.856;2022-08-25T02:08:13;96186.53;;;26.76
50206;BMP280;36098;48.390;10.856;2022-08-25T02:10:39;96182.00;;;26.76
50206;BMP280;36098;48.390;10.856;2022-08-25T02:13:06;96174.16;;;26.71
50206;BMP280;36098;48.390;10.856;2022-08-25T02:15:32;96174.16;;;26.71
50206;BMP280;36098;48.390;10.856;2022-08-25T02:17:57;96182.69;;;26.68
50206;BMP280;36098;48.390;10.856;2022-08-25T02:20:23;96178.63;;;26.71
50206;BMP280;36098;48.390;10.856;2022-08-25T02:22:52;96179.53;;;26.66
50206;BMP280;36098;48.390;10.856;2022-08-25T02:25:18;96176.16;;;26.61
50206;BMP280;36098;48.390;10.856;2022-08-25T02:27:44;96173.25;;;26.62
50206;BMP280;36098;48.390;10.856;2022-08-25T02:30:15;96177.75;;;26.62
50206;BMP280;36098;48.390;10.856;2022-08-25T02:32:40;96177.75;;;26.62
50206;BMP280;36098;48.390;10.856;2022-08-25T02:35:06;96177.16;;;26.65
50206;BMP280;36098;48.390;10.856;2022-08-25T02:37:32;96171.88;;;26.65
50206;BMP280;36098;48.390;10.856;2022-08-25T02:39:57;96174.22;;;26.66
50206;BMP280;36098;48.390;10.856;2022-08-25T02:42:24;96179.63;;;26.61
50206;BMP280;36098;48.390;10.856;2022-08-25T02:44:49;96175.00;;;26.67
50206;BMP280;36098;48.390;10.856;2022-08-25T02:47:14;96171.28;;;26.68
50206;BMP280;36098;48.390;10.856;2022-08-25T02:49:40;96171.94;;;26.60
50206;BMP280;36098;48.390;10.856;2022-08-25T02:52:05;96171.16;;;26.59
50206;BMP280;36098;48.390;10.856;2022-08-25T02:54:31;96168.59;;;26.54
50206;BMP280;36098;48.390;10.856;2022-08-25T02:56:56;96176.44;;;26.59
50206;BMP280;36098;48.390;10.856;2022-08-25T02:59:21;96173.75;;;26.64
50206;BMP280;36098;48.390;10.856;2022-08-25T03:01:46;96172.44;;;26.62
50206;BMP280;36098;48.390;10.856;2022-08-25T03:04:12;96178.31;;;26.59
50206;BMP280;36098;48.390;10.856;2022-08-25T03:06:37;96188.06;;;26.63
50206;BMP280;36098;48.390;10.856;2022-08-25T03:09:03;96188.69;;;26.55
50206;BMP280;36098;48.390;10.856;2022-08-25T03:11:29;96182.53;;;26.60
50206;BMP280;36098;48.390;10.856;2022-08-25T03:13:55;96184.13;;;26.61
50206;BMP280;36098;48.390;10.856;2022-08-25T03:16:21;96183.53;;;26.64
50206;BMP280;36098;48.390;10.856;2022-08-25T03:18:47;96183.03;;;26.62
50206;BMP280;36098;48.390;10.856;2022-08-25T03:21:12;96182.75;;;26.63
50206;BMP280;36098;48.390;10.856;2022-08-25T03:23:39;96177.16;;;26.65
50206;BMP280;36098;48.390;10.856;2022-08-25T03:26:05;96176.16;;;26.61
50206;BMP280;36098;48.390;10.856;2022-08-25T03:28:49;96166.16;;;26.58
50206;BMP280;36098;48.390;10.856;2022-08-25T03:31:14;96173.59;;;26.56
50206;BMP280;36098;48.390;10.856;2022-08-25T03:33:40;96185.34;;;26.50
50206;BMP280;36098;48.390;10.856;2022-08-25T03:36:06;96180.56;;;26.52
50206;BMP280;36098;48.390;10.856;2022-08-25T03:38:32;96179.50;;;26.53
50206;BMP280;36098;48.390;10.856;2022-08-25T03:40:58;96177.34;;;26.55
50206;BMP280;36098;48.390;10.856;2022-08-25T03:43:23;96172.03;;;26.55
50206;BMP280;36098;48.390;10.856;2022-08-25T03:45:49;96164.59;;;26.57
50206;BMP280;36098;48.390;10.856;2022-08-25T03:48:15;96170.38;;;26.59
50206;BMP280;36098;48.390;10.856;2022-08-25T03:50:46;96164.00;;;26.60
50206;BMP280;36098;48.390;10.856;2022-08-25T03:53:12;96166.06;;;26.63
50206;BMP280;36098;48.390;10.856;2022-08-25T03:55:39;96162.06;;;26.65
50206;BMP280;36098;48.390;10.856;2022-08-25T03:58:04;96171.94;;;26.60
50206;BMP280;36098;48.390;10.856;2022-08-25T04:00:29;96169.88;;;26.57
50206;BMP280;36098;48.390;10.856;2022-08-25T04:02:55;96170.47;;;26.54
50206;BMP280;36098;48.390;10.856;2022-08-25T04:05:20;96172.63;;;26.52
50206;BMP280;36098;48.390;10.856;2022-08-25T04:07:45;96167.09;;;26.48
50206;BMP280;36098;48.390;10.856;2022-08-25T04:10:11;96161.00;;;26.48
50206;BMP280;36098;48.390;10.856;2022-08-25T04:12:37;96160.06;;;26.39
50206;BMP280;36098;48.390;10.856;2022-08-25T04:15:06;96161.56;;;26.45
50206;BMP280;36098;48.390;10.856;2022-08-25T04:17:32;96164.16;;;26.50
50206;BMP280;36098;48.390;10.856;2022-08-25T04:19:58;96170.00;;;26.47
50206;BMP280;36098;48.390;10.856;2022-08-25T04:22:23;96164.28;;;26.40
50206;BMP280;36098;48.390;10.856;2022-08-25T04:24:49;96163.72;;;26.43
50206;BMP280;36098;48.390;10.856;2022-08-25T04:27:14;96167.22;;;26.38
50206;BMP280;36098;48.390;10.856;2022-08-25T04:29:40;96169.72;;;26.30
50206;BMP280;36098;48.390;10.856;2022-08-25T04:32:05;96167.78;;;26.35
50206;BMP280;36098;48.390;10.856;2022-08-25T04:34:31;96163.22;;;26.41
50206;BMP280;36098;48.390;10.856;2022-08-25T04:36:59;96164.56;;;26.38
50206;BMP280;36098;48.390;10.856;2022-08-25T04:39:24;96162.41;;;26.40
50206;BMP280;36098;48.390;10.856;2022-08-25T04:41:50;96161.56;;;26.45
50206;BMP280;36098;48.390;10.856;2022-08-25T04:44:15;96161.88;;;26.43
50206;BMP280;36098;48.390;10.856;2022-08-25T04:46:41;96167.31;;;26.52
50206;BMP280;36098;48.390;10.856;2022-08-25T04:49:06;96162.59;;;26.49
50206;BMP280;36098;48.390;10.856;2022-08-25T04:51:35;96164.22;;;26.45
50206;BMP280;36098;48.390;10.856;2022-08-25T04:54:02;96166.53;;;26.51
50206;BMP280;36098;48.390;10.856;2022-08-25T04:56:29;96157.84;;;26.46
50206;BMP280;36098;48.390;10.856;2022-08-25T04:59:03;96155.72;;;26.48
50206;BMP280;36098;48.390;10.856;2022-08-25T05:01:29;96155.06;;;26.56
50206;BMP280;36098;48.390;10.856;2022-08-25T05:03:58;96151.56;;;26.42
50206;BMP280;36098;48.390;10.856;2022-08-25T05:06:24;96152.53;;;26.46
50206;BMP280;36098;48.390;10.856;2022-08-25T05:08:49;96155.66;;;26.53
50206;BMP280;36098;48.390;10.856;2022-08-25T05:11:16;96159.94;;;26.49
50206;BMP280;36098;48.390;10.856;2022-08-25T05:13:42;96159.38;;;26.52
50206;BMP280;36098;48.390;10.856;2022-08-25T05:16:08;96164.16;;;26.50
50206;BMP280;36098;48.390;10.856;2022-08-25T05:18:34;96150.16;;;26.49
50206;BMP280;36098;48.390;10.856;2022-08-25T05:21:11;96154.09;;;26.52
50206;BMP280;36098;48.390;10.856;2022-08-25T05:23:38;96159.66;;;26.50
50206;BMP280;36098;48.390;10.856;2022-08-25T05:26:13;96153.34;;;26.46
50206;BMP280;36098;48.390;10.856;2022-08-25T05:28:40;96160.78;;;26.44
50206;BMP280;36098;48.390;10.856;2022-08-25T05:31:07;96153.91;;;26.43
50206;BMP280;36098;48.390;10.856;2022-08-25T05:33:34;96152.84;;;26.44
50206;BMP280;36098;48.390;10.856;2022-08-25T05:35:59;96159.00;;;26.40
50206;BMP280;36098;48.390;10.856;2022-08-25T05:38:24;96157.50;;;26.34
50206;BMP280;36098;48.390;10.856;2022-08-25T05:40:57;96161.00;;;26.29
50206;BMP280;36098;48.390;10.856;2022-08-25T05:43:23;96158.78;;;26.36
50206;BMP280;36098;48.390;10.856;2022-08-25T05:45:48;96150.34;;;26.34
50206;BMP280;36098;48.390;10.856;2022-08-25T05:48:14;96164.06;;;26.36
50206;BMP280;36098;48.390;10.856;2022-08-25T05:50:39;96168.78;;;26.39
50206;BMP280;36098;48.390;10.856;2022-08-25T05:53:06;96168.16;;;26.29
50206;BMP280;36098;48.390;10.856;2022-08-25T05:55:31;96174.59;;;26.23
50206;BMP280;36098;48.390;10.856;2022-08-25T05:57:56;96165.00;;;26.27
50206;BMP280;36098;48.390;10.856;2022-08-25T06:00:22;96162.00;;;26.33
50206;BMP280;36098;48.390;10.856;2022-08-25T06:02:48;96152.75;;;26.31
50206;BMP280;36098;48.390;10.856;2022-08-25T06:05:23;96154.84;;;26.34
50206;BMP280;36098;48.390;10.856;2022-08-25T06:07:50;96151.50;;;26.28
50206;BMP280;36098;48.390;10.856;2022-08-25T06:10:17;96151.72;;;26.32
50206;BMP280;36098;48.390;10.856;2022-08-25T06:12:44;96157.78;;;26.32
50206;BMP280;36098;48.390;10.856;2022-08-25T06:15:12;96151.13;;;26.35
50206;BMP280;36098;48.390;10.856;2022-08-25T06:17:38;96149.19;;;26.40
50206;BMP280;36098;48.390;10.856;2022-08-25T06:20:11;96149.47;;;26.39
50206;BMP280;36098;48.390;10.856;2022-08-25T06:22:36;96151.13;;;26.35
50206;BMP280;36098;48.390;10.856;2022-08-25T06:25:05;96150.13;;;26.31
50206;BMP280;36098;48.390;10.856;2022-08-25T06:27:32;96145.03;;;26.34
50206;BMP280;36098;48.390;10.856;2022-08-25T06:29:57;96147.41;;;26.36
50206;BMP280;36098;48.390;10.856;2022-08-25T06:32:22;96150.75;;;26.41
50206;BMP280;36098;48.390;10.856;2022-08-25T06:34:47;96149.97;;;26.41
50206;BMP280;36098;48.390;10.856;2022-08-25T06:37:13;96147.31;;;26.41
50206;BMP280;36098;48.390;10.856;2022-08-25T06:39:38;96150.06;;;26.36
50206;BMP280;36098;48.390;10.856;2022-08-25T06:42:04;96146.44;;;26.32
50206;BMP280;36098;48.390;10.856;2022-08-25T06:44:29;96153.69;;;26.40
50206;BMP280;36098;48.390;10.856;2022-08-25T06:46:54;96147.50;;;26.49
50206;BMP280;36098;48.390;10.856;2022-08-25T06:49:20;96140.38;;;26.45
50206;BMP280;36098;48.390;10.856;2022-08-25T06:51:46;96147.78;;;26.48
50206;BMP280;36098;48.390;10.856;2022-08-25T06:54:11;96138.81;;;26.44
50206;BMP280;36098;48.390;10.856;2022-08-25T06:56:38;96142.47;;;26.48
50206;BMP280;36098;48.390;10.856;2022-08-25T06:59:05;96141.88;;;26.51
50206;BMP280;36098;48.390;10.856;2022-08-25T07:01:31;96140.03;;;26.51
50206;BMP280;36098;48.390;10.856;2022-08-25T07:03:58;96142.53;;;26.43
50206;BMP280;36098;48.390;10.856;2022-08-25T07:06:26;96139.81;;;26.48
50206;BMP280;36098;48.390;10.856;2022-08-25T07:08:51;96146.13;;;26.52
50206;BMP280;36098;48.390;10.856;2022-08-25T07:11:17;96143.69;;;26.55
50206;BMP280;36098;48.390;10.856;2022-08-25T07:13:44;96147.13;;;26.56
50206;BMP280;36098;48.390;10.856;2022-08-25T07:16:09;96147.13;;;26.56
50206;BMP280;36098;48.390;10.856;2022-08-25T07:18:35;96146.13;;;26.52
50206;BMP280;36098;48.390;10.856;2022-08-25T07:21:00;96137.97;;;26.48
50206;BMP280;36098;48.390;10.856;2022-08-25T07:23:26;96140.84;;;26.52
50206;BMP280;36098;48.390;10.856;2022-08-25T07:25:53;96135.34;;;26.48
50206;BMP280;36098;48.390;10.856;2022-08-25T07:28:19;96137.19;;;26.48
50206;BMP280;36098;48.390;10.856;2022-08-25T07:30:45;96124.16;;;26.51
50206;BMP280;36098;48.390;10.856;2022-08-25T07:33:11;96136.59;;;26.51
50206;BMP280;36098;48.390;10.856;2022-08-25T07:35:36;96138.47;;;26.50
50206;BMP280;36098;48.390;10.856;2022-08-25T07:38:03;96132.31;;;26.55
50206;BMP280;36098;48.390;10.856;2022-08-25T07:40:33;96131.25;;;26.56
50206;BMP280;36098;48.390;10.856;2022-08-25T07:43:02;96131.81;;;26.53
50206;BMP280;36098;48.390;10.856;2022-08-25T07:45:31;96140.84;;;26.52
50206;BMP280;36098;48.390;10.856;2022-08-25T07:47:58;96142.97;;;26.50
50206;BMP280;36098;48.390;10.856;2022-08-25T07:50:24;96141.41;;;26.49
50206;BMP280;36098;48.390;10.856;2022-08-25T07:52:50;96126.22;;;26.54
50206;BMP280;36098;48.390;10.856;2022-08-25T07:55:16;96143.78;;;26.50
50206;BMP280;36098;48.390;10.856;2022-08-25T07:57:41;96127.59;;;26.52
50206;BMP280;36098;48.390;10.856;2022-08-25T08:00:08;96125.72;;;26.52
50206;BMP280;36098;48.390;10.856;2022-08-25T08:02:37;96131.81;;;26.53
50206;BMP280;36098;48.390;10.856;2022-08-25T08:05:02;96139.69;;;26.58
50206;BMP280;36098;48.390;10.856;2022-08-25T08:07:28;96141.84;;;26.56
50206;BMP280;36098;48.390;10.856;2022-08-25T08:09:53;96130.75;;;26.54
50206;BMP280;36098;48.390;10.856;2022-08-25T08:12:20;96138.09;;;26.57
50206;BMP280;36098;48.390;10.856;2022-08-25T08:14:45;96126.94;;;26.60
50206;BMP280;36098;48.390;10.856;2022-08-25T08:17:11;96124.56;;;26.58
50206;BMP280;36098;48.390;10.856;2022-08-25T08:19:37;96130.34;;;26.60
50206;BMP280;36098;48.390;10.856;2022-08-25T08:22:04;96129.31;;;26.61
50206;BMP280;36098;48.390;10.856;2022-08-25T08:24:30;96117.91;;;26.61
50206;BMP280;36098;48.390;10.856;2022-08-25T08:26:56;96114.47;;;26.60
50206;BMP280;36098;48.390;10.856;2022-08-25T08:29:22;96118.41;;;26.63
50206;BMP280;36098;48.390;10.856;2022-08-25T08:31:47;96107.31;;;26.61
50206;BMP280;36098;48.390;10.856;2022-08-25T08:34:13;96119.97;;;26.64
50206;BMP280;36098;48.390;10.856;2022-08-25T08:36:38;96121.53;;;26.65
50206;BMP280;36098;48.390;10.856;2022-08-25T08:39:04;96116.56;;;26.63
50206;BMP280;36098;48.390;10.856;2022-08-25T08:41:40;96122.63;;;26.64
50206;BMP280;36098;48.390;10.856;2022-08-25T08:47:18;96121.63;;;26.60
50206;BMP280;36098;48.390;10.856;2022-08-25T08:55:43;96114.41;;;26.65
50206;BMP280;36098;48.390;10.856;2022-08-25T08:58:17;96109.22;;;26.74
50206;BMP280;36098;48.390;10.856;2022-08-25T09:00:48;96112.44;;;26.71
50206;BMP280;36098;48.390;10.856;2022-08-25T09:05:54;96114.31;;;26.70
50206;BMP280;36098;48.390;10.856;2022-08-25T09:08:20;96116.75;;;26.67
50206;BMP280;36098;48.390;10.856;2022-08-25T09:13:51;96115.28;;;26.74
50206;BMP280;36098;48.390;10.856;2022-08-25T09:16:51;96110.78;;;26.75
50206;BMP280;36098;48.390;10.856;2022-08-25T09:20:02;96113.94;;;26.77
50206;BMP280;36098;48.390;10.856;2022-08-25T09:28:26;96114.03;;;26.72
50206;BMP280;36098;48.390;10.856;2022-08-25T09:33:36;96097.44;;;26.66
50206;BMP280;36098;48.390;10.856;2022-08-25T09:36:03;96089.09;;;26.73
50206;BMP280;36098;48.390;10.856;2022-08-25T09:38:29;96082.72;;;26.74
50206;BMP280;36098;48.390;10.856;2022-08-25T09:40:57;96095.75;;;26.70
50206;BMP280;36098;48.390;10.856;2022-08-25T09:46:22;96082.41;;;26.75
50206;BMP280;36098;48.390;10.856;2022-08-25T09:48:51;96080.00;;;26.79
50206;BMP280;36098;48.390;10.856;2022-08-25T09:53:58;96077.50;;;26.69
50206;BMP280;36098;48.390;10.856;2022-08-25T09:56:27;96070.72;;;26.63
50206;BMP280;36098;48.390;10.856;2022-08-25T09:58:54;96065.44;;;26.63
50206;BMP280;36098;48.390;10.856;2022-08-25T10:01:22;96062.88;;;26.58
50206;BMP280;36098;48.390;10.856;2022-08-25T10:04:02;96060.25;;;26.58
50206;BMP280;36098;48.390;10.856;2022-08-25T10:06:33;96057.88;;;26.56
50206;BMP280;36098;48.390;10.856;2022-08-25T10:09:03;96061.59;;;26.69
50206;BMP280;36098;48.390;10.856;2022-08-25T10:11:44;96058.91;;;26.74
50206;BMP280;36098;48.390;10.856;2022-08-25T10:16:49;96038.09;;;26.67
50206;BMP280;36098;48.390;10.856;2022-08-25T10:24:35;96045.53;;;26.65
50206;BMP280;36098;48.390;10.856;2022-08-25T10:29:49;96038.75;;;26.59
50206;BMP280;36098;48.390;10.856;2022-08-25T10:32:28;96046.88;;;26.49
50206;BMP280;36098;48.390;10.856;2022-08-25T10:34:58;96035.88;;;26.42
50206;BMP280;36098;48.390;10.856;2022-08-25T10:40:37;96030.25;;;26.44
50206;BMP280;36098;48.390;10.856;2022-08-25T10:43:30;96035.66;;;26.39
50206;BMP280;36098;48.390;10.856;2022-08-25T10:48:57;96024.53;;;26.23
50206;BMP280;36098;48.390;10.856;2022-08-25T10:51:42;96042.03;;;26.19
50206;BMP280;36098;48.390;10.856;2022-08-25T10:56:57;96030.13;;;26.35
50206;BMP280;36098;48.390;10.856;2022-08-25T10:59:51;96033.97;;;26.29
50206;BMP280;36098;48.390;10.856;2022-08-25T11:05:11;96018.94;;;26.25
50206;BMP280;36098;48.390;10.856;2022-08-25T11:07:48;96016.97;;;26.17
50206;BMP280;36098;48.390;10.856;2022-08-25T11:10:25;96011.06;;;26.06
50206;BMP280;36098;48.390;10.856;2022-08-25T11:12:55;96008.56;;;25.96
50206;BMP280;36098;48.390;10.856;2022-08-25T11:15:25;96001.41;;;25.97
50206;BMP280;36098;48.390;10.856;2022-08-25T11:17:55;95999.84;;;25.96
50206;BMP280;36098;48.390;10.856;2022-08-25T11:21:03;96005.78;;;25.88
50206;BMP280;36098;48.390;10.856;2022-08-25T11:23:38;96001.88;;;25.85
50206;BMP280;36098;48.390;10.856;2022-08-25T11:26:09;95998.91;;;25.87
50206;BMP280;36098;48.390;10.856;2022-08-25T11:29:15;96007.28;;;25.94
50206;BMP280;36098;48.390;10.856;2022-08-25T11:31:44;96009.22;;;25.88
50206;BMP280;36098;48.390;10.856;2022-08-25T11:34:11;95999.72;;;25.87
50206;BMP280;36098;48.390;10.856;2022-08-25T11:36:49;96002.38;;;25.87
50206;BMP280;36098;48.390;10.856;2022-08-25T11:39:36;96005.00;;;25.87
50206;BMP280;36098;48.390;10.856;2022-08-25T11:42:20;96000.00;;;25.86
50206;BMP280;36098;48.390;10.856;2022-08-25T11:48:17;96002.63;;;25.86
50206;BMP280;36098;48.390;10.856;2022-08-25T11:51:02;96008.72;;;25.86
50206;BMP280;36098;48.390;10.856;2022-08-25T11:53:31;96001.56;;;25.87
50206;BMP280;36098;48.390;10.856;2022-08-25T11:56:00;95998.91;;;25.87
50206;BMP280;36098;48.390;10.856;2022-08-25T11:58:36;96001.56;;;25.87
50206;BMP280;36098;48.390;10.856;2022-08-25T12:01:05;95996.28;;;25.87
50206;BMP280;36098;48.390;10.856;2022-08-25T12:06:29;95997.25;;;25.91
50206;BMP280;36098;48.390;10.856;2022-08-25T12:11:43;95998.06;;;25.91
50206;BMP280;36098;48.390;10.856;2022-08-25T12:21:57;96002.78;;;25.94
50206;BMP280;36098;48.390;10.856;2022-08-25T12:27:11;95993.75;;;25.95
50206;BMP280;36098;48.390;10.856;2022-08-25T12:41:12;95985.38;;;26.07
50206;BMP280;36098;48.390;10.856;2022-08-25T12:43:41;95980.16;;;26.02
50206;BMP280;36098;48.390;10.856;2022-08-25T12:46:31;95985.47;;;26.02
50206;BMP280;36098;48.390;10.856;2022-08-25T12:54:16;95982.44;;;26.08
50206;BMP280;36098;48.390;10.856;2022-08-25T12:56:48;95981.28;;;26.14
50206;BMP280;36098;48.390;10.856;2022-08-25T13:05:02;95976.78;;;26.15
50206;BMP280;36098;48.390;10.856;2022-08-25T13:12:51;95966.97;;;26.15
50206;BMP280;36098;48.390;10.856;2022-08-25T13:18:21;95970.59;;;26.19
50206;BMP280;36098;48.390;10.856;2022-08-25T13:20:50;95961.66;;;26.15
50206;BMP280;36098;48.390;10.856;2022-08-25T13:23:20;95955.03;;;26.18
50206;BMP280;36098;48.390;10.856;2022-08-25T13:25:48;95957.66;;;26.18
50206;BMP280;36098;48.390;10.856;2022-08-25T13:28:23;95954.44;;;26.21
50206;BMP280;36098;48.390;10.856;2022-08-25T13:31:06;95944.63;;;26.21
50206;BMP280;36098;48.390;10.856;2022-08-25T13:33:36;95946.78;;;26.19
50206;BMP280;36098;48.390;10.856;2022-08-25T13:36:02;95946.78;;;26.19
50206;BMP280;36098;48.390;10.856;2022-08-25T13:38:48;95942.78;;;26.22
50206;BMP280;36098;48.390;10.856;2022-08-25T13:41:19;95937.75;;;26.20
50206;BMP280;36098;48.390;10.856;2022-08-25T13:43:47;95933.53;;;26.19
50206;BMP280;36098;48.390;10.856;2022-08-25T13:46:17;95933.84;;;26.18
50206;BMP280;36098;48.390;10.856;2022-08-25T13:48:43;95931.47;;;26.16
50206;BMP280;36098;48.390;10.856;2022-08-25T13:51:24;95928.75;;;26.21
50206;BMP280;36098;48.390;10.856;2022-08-25T13:54:02;95925.59;;;26.19
50206;BMP280;36098;48.390;10.856;2022-08-25T13:56:33;95926.41;;;26.20
50206;BMP280;36098;48.390;10.856;2022-08-25T13:59:01;95921.09;;;26.20
50206;BMP280;36098;48.390;10.856;2022-08-25T14:01:29;95925.59;;;26.19
50206;BMP280;36098;48.390;10.856;2022-08-25T14:06:44;95927.16;;;26.20
50206;BMP280;36098;48.390;10.856;2022-08-25T14:09:14;95925.81;;;26.23
50206;BMP280;36098;48.390;10.856;2022-08-25T14:11:55;95914.72;;;26.21
50206;BMP280;36098;48.390;10.856;2022-08-25T14:16:49;95921.50;;;26.27
50206;BMP280;36098;48.390;10.856;2022-08-25T14:19:17;95919.78;;;26.49
50206;BMP280;36098;48.390;10.856;2022-08-25T14:21:43;95927.13;;;26.52
50206;BMP280;36098;48.390;10.856;2022-08-25T14:24:08;95920.84;;;26.75
50206;BMP280;36098;48.390;10.856;2022-08-25T14:26:35;95918.66;;;27.17
50206;BMP280;36098;48.390;10.856;2022-08-25T14:29:00;95915.88;;;27.22
50206;BMP280;36098;48.390;10.856;2022-08-25T14:31:30;95912.91;;;27.37
50206;BMP280;36098;48.390;10.856;2022-08-25T14:34:00;95911.47;;;27.31
50206;BMP280;36098;48.390;10.856;2022-08-25T14:36:28;95902.03;;;27.25
50206;BMP280;36098;48.390;10.856;2022-08-25T14:38:53;95908.72;;;27.23
50206;BMP280;36098;48.390;10.856;2022-08-25T14:41:19;95904.75;;;27.34
50206;BMP280;36098;48.390;10.856;2022-08-25T14:43:45;95911.47;;;27.18
50206;BMP280;36098;48.390;10.856;2022-08-25T14:46:31;95915.13;;;27.22
50206;BMP280;36098;48.390;10.856;2022-08-25T14:48:58;95912.28;;;27.05
50206;BMP280;36098;48.390;10.856;2022-08-25T14:51:24;95910.72;;;27.04
50206;BMP280;36098;48.390;10.856;2022-08-25T14:53:53;95904.31;;;27.05
50206;BMP280;36098;48.390;10.856;2022-08-25T14:56:20;95902.47;;;26.92
50206;BMP280;36098;48.390;10.856;2022-08-25T14:58:45;95906.31;;;26.86
50206;BMP280;36098;48.390;10.856;2022-08-25T15:01:12;95899.38;;;26.77
50206;BMP280;36098;48.390;10.856;2022-08-25T15:03:41;95899.53;;;26.80
50206;BMP280;36098;48.390;10.856;2022-08-25T15:06:10;95891.72;;;26.75
50206;BMP280;36098;48.390;10.856;2022-08-25T15:08:36;95892.31;;;26.72
50206;BMP280;36098;48.390;10.856;2022-08-25T15:11:21;95886.06;;;26.55
50206;BMP280;36098;48.390;10.856;2022-08-25T15:13:46;95889.59;;;26.50
50206;BMP280;36098;48.390;10.856;2022-08-25T15:16:16;95892.31;;;26.45
50206;BMP280;36098;48.390;10.856;2022-08-25T15:18:44;95882.00;;;26.44
50206;BMP280;36098;48.390;10.856;2022-08-25T15:21:09;95888.22;;;26.53
50206;BMP280;36098;48.390;10.856;2022-08-25T15:23:34;95888.59;;;26.60
50206;BMP280;36098;48.390;10.856;2022-08-25T15:25:59;95884.88;;;26.61
50206;BMP280;36098;48.390;10.856;2022-08-25T15:28:25;95885.44;;;26.71
50206;BMP280;36098;48.390;10.856;2022-08-25T15:30:51;95887.75;;;27.00
50206;BMP280;36098;48.390;10.856;2022-08-25T15:33:16;95886.19;;;26.99
50206;BMP280;36098;48.390;10.856;2022-08-25T15:35:42;95876.06;;;27.36
50206;BMP280;36098;48.390;10.856;2022-08-25T15:38:07;95868.03;;;27.41
50206;BMP280;36098;48.390;10.856;2022-08-25T15:40:33;95866.50;;;27.48
50206;BMP280;36098;48.390;10.856;2022-08-25T15:43:01;95867.56;;;27.47
50206;BMP280;36098;48.390;10.856;2022-08-25T15:45:27;95867.09;;;27.45
50206;BMP280;36098;48.390;10.856;2022-08-25T15:47:52;95847.34;;;27.51
50206;BMP280;36098;48.390;10.856;2022-08-25T15:50:19;95861.31;;;27.43
50206;BMP280;36098;48.390;10.856;2022-08-25T15:52:45;95860.91;;;27.50
50206;BMP280;36098;48.390;10.856;2022-08-25T15:55:11;95861.50;;;27.47
50206;BMP280;36098;48.390;10.856;2022-08-25T15:57:37;95861.31;;;27.43